Startpagina
METAR-TAF:

METAR-TAF

Vliegvelden :

Flughafen Engadin

Sankt Moritz, Zwitserland

breedte: 46-32-03N, lengte: 9-53-03E, hoogte: 1707 m

Actueel weer

Dit bericht is 25 minuten geleden gemaakt, om 16:20 UTC
Wind 7 kt uit het noordwesten
Temperatuur 11°C
Vochtigheid 35%
Druk 1023 hPa
Zicht 10 km of meer
geen wolken onder 1500 m en geen cumulonimbus

METAR: LSZS 091620Z AUTO 32007KT CAVOK 11/M04 Q1023

Tijdstip: 18:45 (16:45 UTC)

Verwachting

Dit bericht is 2 uur en het 20 minuten geleden gemaakt, om 14:25 UTC
Verwachting geldig van 09 om 15 UTC tot 09 om 24 UTC
Wind 3 kt uit variabele richting
Zicht 10 km of meer
geen wolken onder 1500 m en geen cumulonimbus

TAF: LSZS 091425Z 0915/0924 VRB03KT CAVOK TX13/0915Z

Waarnemingen en weersverwachtingen van meer dan 4000 vliegvelden (METAR en TAF).

De beschikbare stations zijn de gele en rode punten op de kaart.

Ga met uw muis naar het station om de naam te zien.

Klik dan om waarnemingen en weersverwachtingen te zien.

kaart wijzigen: klik op de groene knoppen met een zwart kruis om in te zoomen, op de groene knop met een streepje om uit te zoomen of op de groene pijlen voor aangrenzende kaarten.


METAR-TAF: